Lake Cumberland Regional Airport
KSME : now visible

Airfield :











YOU CAN JOIN US ON...

 
LOGIN :

Register | Disclaimer

   EN    FR    IT 

 









Legend :    VFR   Marginal VFR   IFR   Intensive IFR   Very Intensive IFR
Visi :
Ceiling :
>= 8 km
>= 3000ft
5 to 8 km
1000 to 3000 ft
1500m to 5 km
500 to 1000 ft
800 to 1500m
200 to 500 ft
< 800m
< 200 ft
Symbols :   Thunderstorms  Fog  Heavy snow  Heavy precipitations  Wind > 20 kt






- Airport Elevation : 927 ft


KSME - Lake Cumberland Regional

CURRENT METAR :
  • 080555Z AUTO 24009G16KT 10SM OVC027 18/12 A2985 RMK AO2

EXPIRED METARs :
  • 080535Z AUTO 24008KT 10SM OVC027 18/13 A2986 RMK AO2
  • 080515Z AUTO 24009KT 10SM BKN027 19/13 A2986 RMK AO2
  • 080455Z AUTO 24006KT 10SM CLR 19/13 A2985 RMK AO2
  • 080435Z AUTO 24007KT 10SM CLR 19/13 A2986 RMK AO2
  • 080415Z AUTO 24006KT 10SM CLR 19/13 A2986 RMK AO2
  • 080355Z AUTO 24009G18KT 10SM CLR 20/13 A2987 RMK AO2
  • 080335Z AUTO 24011KT 10SM SCT034 20/13 A2987 RMK AO2
  • 080315Z AUTO 24007KT 10SM SCT036 20/13 A2988 RMK AO2

TAF KSME
Valid from the 08 at 06:00 until the 09 at 06:00 UTC


080525Z 0806/0906 23007G15KT P6SM BKN025
FM081300 VRB05KT P6SM VCTS OVC007CB
FM081800 26007KT P6SM BKN035



MET'MAP, your aeronautical weather chart ! - Copyright ORBIFLY December 2007 - Disclaimer

ORBIFLY MET'MAP TEAM :

Programming & Development : Alexandra Zaïnal
Concept & original design : Baudouin d'Aumeries
Assistance for programming : Marc-Olivier Méhu
Technical & hardware support : Manuel Goepfert

Contact : metmap@orbifly.com




SOURCES & CREDITS :

   NOAA       Earth
Advisory